Time;durP1;ratioP1;P1;durP2;ratioP2;P2;SDS_P1;SDS_P2;PMS_P1;PMS_P2;Temp;Humidity;BMP_temperature;BMP_pressure;BME280_temperature;BME280_humidity;BME280_pressure;Samples;Min_cycle;Max_cycle;Signal;HPM_P1;HPM_P2
2023/10/31 00:01:24;;;;;;;5.50;5.00;;;;;;;;;;5067841;28;20704;-58
2023/10/31 00:03:50;;;;;;;5.37;4.87;;;;;;;;;;5060216;28;20514;-56
2023/10/31 00:06:16;;;;;;;4.40;4.00;;;;;;;;;;5055953;28;20563;-56
2023/10/31 00:08:43;;;;;;;5.20;4.70;;;;;;;;;;5067600;28;20192;-56
2023/10/31 00:11:09;;;;;;;4.70;4.30;;;;;;;;;;5063558;28;20183;-56
2023/10/31 00:13:35;;;;;;;4.43;4.13;;;;;;;;;;5068682;28;20235;-56
2023/10/31 00:16:01;;;;;;;4.30;4.00;;;;;;;;;;5062317;28;20301;-56
2023/10/31 00:18:27;;;;;;;4.20;3.90;;;;;;;;;;5062896;28;20302;-56
2023/10/31 00:20:53;;;;;;;3.90;3.50;;;;;;;;;;5060588;28;20649;-56
2023/10/31 00:23:19;;;;;;;3.63;3.43;;;;;;;;;;5064895;28;20253;-56
2023/10/31 00:25:45;;;;;;;3.93;3.63;;;;;;;;;;5072011;28;20532;-56
2023/10/31 00:28:17;;;;;;;4.33;4.03;;;;;;;;;;5064138;28;21945;-56
2023/10/31 00:30:43;;;;;;;3.60;3.30;;;;;;;;;;5064427;28;20196;-56
2023/10/31 00:33:09;;;;;;;4.23;3.93;;;;;;;;;;5055747;28;20250;-56
2023/10/31 00:35:35;;;;;;;4.13;3.83;;;;;;;;;;5067055;28;20212;-56
2023/10/31 00:38:01;;;;;;;3.53;3.30;;;;;;;;;;5069623;28;20631;-56
2023/10/31 00:40:27;;;;;;;3.63;3.40;;;;;;;;;;5062135;28;20181;-56
2023/10/31 00:42:53;;;;;;;3.77;3.47;;;;;;;;;;5065762;28;20180;-56
2023/10/31 00:45:20;;;;;;;3.40;3.20;;;;;;;;;;5064984;28;20187;-55
2023/10/31 00:47:46;;;;;;;3.00;2.80;;;;;;;;;;5070070;28;20219;-55
2023/10/31 00:50:12;;;;;;;2.80;2.60;;;;;;;;;;5061786;28;20212;-56
2023/10/31 00:52:38;;;;;;;2.70;2.50;;;;;;;;;;5065133;28;20656;-55
2023/10/31 00:55:04;;;;;;;2.53;2.40;;;;;;;;;;5069701;28;20208;-56
2023/10/31 00:57:30;;;;;;;2.70;2.50;;;;;;;;;;5067973;28;20208;-56
2023/10/31 00:59:56;;;;;;;2.30;2.10;;;;;;;;;;5063145;28;20231;-55
2023/10/31 01:02:22;;;;;;;2.93;2.30;;;;;;;;;;5060576;28;20185;-56
2023/10/31 01:04:49;;;;;;;2.50;2.30;;;;;;;;;;5065594;28;20645;-56
2023/10/31 01:07:16;;;;;;;2.57;2.37;;;;;;;;;;5070857;28;20211;-56
2023/10/31 01:09:43;;;;;;;3.23;2.50;;;;;;;;;;5073815;28;20545;-56
2023/10/31 01:12:10;;;;;;;2.83;2.63;;;;;;;;;;5067554;28;20277;-55
2023/10/31 01:14:37;;;;;;;4.83;2.83;;;;;;;;;;5065222;28;20192;-56
2023/10/31 01:17:03;;;;;;;3.30;3.10;;;;;;;;;;5068468;28;20184;-56
2023/10/31 01:19:29;;;;;;;2.93;2.73;;;;;;;;;;5066417;28;20189;-56
2023/10/31 01:21:55;;;;;;;3.83;3.53;;;;;;;;;;5066277;28;20188;-57
2023/10/31 01:24:23;;;;;;;4.07;3.77;;;;;;;;;;5071509;28;20207;-55
2023/10/31 01:26:49;;;;;;;4.40;4.00;;;;;;;;;;5069822;28;20353;-56
2023/10/31 01:29:15;;;;;;;4.90;4.50;;;;;;;;;;5063140;28;20685;-55
2023/10/31 01:31:41;;;;;;;4.67;4.27;;;;;;;;;;5065342;28;20286;-56
2023/10/31 01:34:08;;;;;;;6.73;4.70;;;;;;;;;;5064504;28;20632;-56
2023/10/31 01:36:34;;;;;;;4.80;4.40;;;;;;;;;;5065085;28;20559;-56
2023/10/31 01:39:00;;;;;;;4.43;4.13;;;;;;;;;;5066700;28;20295;-56
2023/10/31 01:41:26;;;;;;;5.37;4.87;;;;;;;;;;5066113;28;20177;-56
2023/10/31 01:43:52;;;;;;;4.80;4.37;;;;;;;;;;5058226;28;20222;-57
2023/10/31 01:46:18;;;;;;;5.20;4.80;;;;;;;;;;5063401;28;20271;-56
2023/10/31 01:48:44;;;;;;;5.17;4.77;;;;;;;;;;5064713;28;20673;-56
2023/10/31 01:51:14;;;;;;;5.70;5.20;;;;;;;;;;5068903;28;20188;-56
2023/10/31 01:53:40;;;;;;;4.60;4.20;;;;;;;;;;5068922;28;20185;-55
2023/10/31 01:56:07;;;;;;;5.10;4.70;;;;;;;;;;5065429;28;20185;-56
2023/10/31 01:58:37;;;;;;;5.20;4.80;;;;;;;;;;5064887;28;20200;-56
2023/10/31 02:01:03;;;;;;;5.20;4.70;;;;;;;;;;5066300;28;20221;-56
2023/10/31 02:03:29;;;;;;;4.93;4.50;;;;;;;;;;5063906;28;20176;-55
2023/10/31 02:05:56;;;;;;;4.80;4.30;;;;;;;;;;5068942;28;20188;-56
2023/10/31 02:08:22;;;;;;;5.03;4.63;;;;;;;;;;5064948;28;20739;-56
2023/10/31 02:10:48;;;;;;;4.93;4.63;;;;;;;;;;5068213;28;20633;-56
2023/10/31 02:13:15;;;;;;;5.23;4.80;;;;;;;;;;5066324;28;20307;-56
2023/10/31 02:15:41;;;;;;;4.80;4.40;;;;;;;;;;5067398;28;20203;-56
2023/10/31 02:18:08;;;;;;;4.43;4.03;;;;;;;;;;5065772;28;20199;-56
2023/10/31 02:20:34;;;;;;;4.67;4.20;;;;;;;;;;5065712;28;20702;-56
2023/10/31 02:23:00;;;;;;;4.70;4.30;;;;;;;;;;5066268;28;20538;-56
2023/10/31 02:25:26;;;;;;;6.67;4.53;;;;;;;;;;5067211;28;20199;-56
2023/10/31 02:27:52;;;;;;;5.23;4.77;;;;;;;;;;5068357;28;20243;-57
2023/10/31 02:30:18;;;;;;;5.53;5.03;;;;;;;;;;5066591;28;20271;-56
2023/10/31 02:32:44;;;;;;;4.57;4.00;;;;;;;;;;5067331;28;20311;-56
2023/10/31 02:35:11;;;;;;;6.50;3.93;;;;;;;;;;5065410;28;20219;-55
2023/10/31 02:37:37;;;;;;;4.50;4.10;;;;;;;;;;5066647;28;20333;-55
2023/10/31 02:40:03;;;;;;;4.60;4.20;;;;;;;;;;5067340;28;20624;-55
2023/10/31 02:42:29;;;;;;;4.47;4.07;;;;;;;;;;5067391;28;20667;-55
2023/10/31 02:44:55;;;;;;;5.20;4.70;;;;;;;;;;5067011;28;20602;-57
2023/10/31 02:47:21;;;;;;;6.73;4.50;;;;;;;;;;5061830;28;20279;-56
2023/10/31 02:49:47;;;;;;;6.33;5.27;;;;;;;;;;5064606;28;20265;-55
2023/10/31 02:52:13;;;;;;;5.67;4.43;;;;;;;;;;5066835;28;20180;-55
2023/10/31 02:54:39;;;;;;;5.80;5.00;;;;;;;;;;5063665;28;20288;-56
2023/10/31 02:57:05;;;;;;;5.67;5.13;;;;;;;;;;5067042;28;20188;-56
2023/10/31 02:59:31;;;;;;;5.37;4.93;;;;;;;;;;5066187;28;20196;-56
2023/10/31 03:01:58;;;;;;;5.23;4.73;;;;;;;;;;5065221;28;20539;-56
2023/10/31 03:04:24;;;;;;;5.50;4.97;;;;;;;;;;5060859;28;20188;-55
2023/10/31 03:06:50;;;;;;;5.17;4.67;;;;;;;;;;5068393;28;20192;-55
2023/10/31 03:09:16;;;;;;;5.53;4.73;;;;;;;;;;5068520;28;20198;-55
2023/10/31 03:11:42;;;;;;;5.23;4.70;;;;;;;;;;5066066;28;20173;-55
2023/10/31 03:14:09;;;;;;;6.07;5.47;;;;;;;;;;5064217;28;20215;-57
2023/10/31 03:16:35;;;;;;;6.20;5.30;;;;;;;;;;5064121;28;20199;-55
2023/10/31 03:19:01;;;;;;;7.90;5.23;;;;;;;;;;5064884;28;20291;-55
2023/10/31 03:21:27;;;;;;;5.37;4.87;;;;;;;;;;5063619;28;20724;-56
2023/10/31 03:23:55;;;;;;;6.70;4.90;;;;;;;;;;5064498;28;20181;-55
2023/10/31 03:26:21;;;;;;;4.90;4.40;;;;;;;;;;5061687;28;20989;-56
2023/10/31 03:28:47;;;;;;;5.90;5.37;;;;;;;;;;5065430;28;20643;-55
2023/10/31 03:31:13;;;;;;;6.17;5.53;;;;;;;;;;5061306;28;20181;-56
2023/10/31 03:33:40;;;;;;;7.33;5.87;;;;;;;;;;5062252;28;20226;-57
2023/10/31 03:36:06;;;;;;;5.83;5.23;;;;;;;;;;5065215;28;20643;-58
2023/10/31 03:38:33;;;;;;;6.17;5.57;;;;;;;;;;5066349;28;20203;-58
2023/10/31 03:40:59;;;;;;;5.87;5.37;;;;;;;;;;5066076;28;20269;-57
2023/10/31 03:43:25;;;;;;;6.43;5.83;;;;;;;;;;5075528;28;20196;-58
2023/10/31 03:45:52;;;;;;;6.57;5.80;;;;;;;;;;5065657;28;20181;-58
2023/10/31 03:48:18;;;;;;;6.37;5.73;;;;;;;;;;5064338;28;20275;-58
2023/10/31 03:50:44;;;;;;;6.73;5.30;;;;;;;;;;5066885;28;20281;-59
2023/10/31 03:53:10;;;;;;;6.10;5.50;;;;;;;;;;5066402;28;20189;-58
2023/10/31 03:55:37;;;;;;;7.50;5.67;;;;;;;;;;5065148;28;20726;-58
2023/10/31 03:58:03;;;;;;;6.77;5.30;;;;;;;;;;5066801;28;20207;-58
2023/10/31 04:00:29;;;;;;;5.97;5.40;;;;;;;;;;5066642;28;20185;-58
2023/10/31 04:02:55;;;;;;;7.50;5.80;;;;;;;;;;5065489;28;20439;-59
2023/10/31 04:05:22;;;;;;;6.40;5.77;;;;;;;;;;5062044;28;20204;-59
2023/10/31 04:07:49;;;;;;;8.27;5.63;;;;;;;;;;5067110;28;20226;-59
2023/10/31 04:10:15;;;;;;;7.20;6.07;;;;;;;;;;5066179;28;21042;-60
2023/10/31 04:12:42;;;;;;;6.90;6.13;;;;;;;;;;5064593;28;20213;-58
2023/10/31 04:15:08;;;;;;;7.47;6.73;;;;;;;;;;5064487;28;20601;-59
2023/10/31 04:17:34;;;;;;;10.53;6.20;;;;;;;;;;5060356;28;20261;-59
2023/10/31 04:20:01;;;;;;;8.07;5.83;;;;;;;;;;5065307;28;20314;-59
2023/10/31 04:22:27;;;;;;;6.20;5.60;;;;;;;;;;5065845;28;20180;-59
2023/10/31 04:24:53;;;;;;;6.90;6.20;;;;;;;;;;5066696;28;20207;-59
2023/10/31 04:27:19;;;;;;;6.50;5.90;;;;;;;;;;5063965;28;20623;-59
2023/10/31 04:29:45;;;;;;;7.67;5.63;;;;;;;;;;5062725;28;20191;-59
2023/10/31 04:32:11;;;;;;;8.73;6.13;;;;;;;;;;5062062;28;20583;-60
2023/10/31 04:34:39;;;;;;;7.70;5.47;;;;;;;;;;5059056;28;20555;-58
2023/10/31 04:37:05;;;;;;;6.00;5.40;;;;;;;;;;5064384;28;20388;-59
2023/10/31 04:39:31;;;;;;;6.27;5.23;;;;;;;;;;5072175;28;20478;-59
2023/10/31 04:41:57;;;;;;;6.77;5.73;;;;;;;;;;5063822;28;20204;-58
2023/10/31 04:44:26;;;;;;;6.47;5.10;;;;;;;;;;5060349;28;20173;-59
2023/10/31 04:46:52;;;;;;;6.23;5.60;;;;;;;;;;5062884;28;20596;-58
2023/10/31 04:49:18;;;;;;;6.27;5.67;;;;;;;;;;5064523;28;20178;-58
2023/10/31 04:51:49;;;;;;;5.57;5.07;;;;;;;;;;5063436;28;20629;-58
2023/10/31 04:54:15;;;;;;;6.00;5.40;;;;;;;;;;5065484;28;20299;-58
2023/10/31 04:56:41;;;;;;;6.40;5.30;;;;;;;;;;5062172;28;20177;-58
2023/10/31 04:59:07;;;;;;;6.50;5.90;;;;;;;;;;5065616;28;20215;-58
2023/10/31 05:01:33;;;;;;;5.77;5.27;;;;;;;;;;5059863;28;20271;-58
2023/10/31 05:03:59;;;;;;;6.00;5.23;;;;;;;;;;5063937;28;20177;-58
2023/10/31 05:06:25;;;;;;;8.30;5.63;;;;;;;;;;5063403;28;20504;-58
2023/10/31 05:08:51;;;;;;;6.93;6.13;;;;;;;;;;5063976;28;20302;-58
2023/10/31 05:11:18;;;;;;;9.47;6.57;;;;;;;;;;5062382;28;20235;-57
2023/10/31 05:13:44;;;;;;;6.77;6.10;;;;;;;;;;5064315;28;20169;-58
2023/10/31 05:16:11;;;;;;;6.50;5.30;;;;;;;;;;5063306;28;20561;-57
2023/10/31 05:18:37;;;;;;;6.03;5.50;;;;;;;;;;5064420;28;20165;-57
2023/10/31 05:21:04;;;;;;;6.33;5.73;;;;;;;;;;5060169;28;20572;-58
2023/10/31 05:23:30;;;;;;;6.53;5.90;;;;;;;;;;5063591;28;20168;-57
2023/10/31 05:25:56;;;;;;;6.27;5.63;;;;;;;;;;5067714;28;20179;-57
2023/10/31 05:28:23;;;;;;;5.90;5.30;;;;;;;;;;5067948;28;20575;-57
2023/10/31 05:30:49;;;;;;;6.10;5.50;;;;;;;;;;5059802;28;20261;-58
2023/10/31 05:33:16;;;;;;;6.73;6.13;;;;;;;;;;5062308;28;20317;-58
2023/10/31 05:35:42;;;;;;;5.53;5.03;;;;;;;;;;5059574;28;20204;-58
2023/10/31 05:38:08;;;;;;;5.07;4.57;;;;;;;;;;5058500;28;20241;-58
2023/10/31 05:40:35;;;;;;;5.97;5.17;;;;;;;;;;5066451;28;20688;-59
2023/10/31 05:43:04;;;;;;;5.30;4.53;;;;;;;;;;5064842;28;20290;-58
2023/10/31 05:45:31;;;;;;;4.90;4.50;;;;;;;;;;5064190;28;20185;-58
2023/10/31 05:47:57;;;;;;;4.87;4.43;;;;;;;;;;5062658;28;20196;-58
2023/10/31 05:50:23;;;;;;;4.83;4.40;;;;;;;;;;5065490;28;20183;-58
2023/10/31 05:52:49;;;;;;;6.50;4.80;;;;;;;;;;5068630;28;20191;-59
2023/10/31 05:55:15;;;;;;;4.70;4.30;;;;;;;;;;5073511;28;20287;-58
2023/10/31 05:57:42;;;;;;;5.10;3.93;;;;;;;;;;5065822;28;20219;-59
2023/10/31 06:00:08;;;;;;;4.70;4.30;;;;;;;;;;5066112;28;20210;-58
2023/10/31 06:02:34;;;;;;;5.88;4.22;;;;;;;;;;5066661;28;20422;-59
2023/10/31 06:05:00;;;;;;;4.50;4.07;;;;;;;;;;5066625;28;20258;-59
2023/10/31 06:07:26;;;;;;;4.33;3.93;;;;;;;;;;5066495;28;20183;-59
2023/10/31 06:09:53;;;;;;;4.20;3.80;;;;;;;;;;5067951;28;20188;-59
2023/10/31 06:12:19;;;;;;;5.50;5.00;;;;;;;;;;5064876;28;20210;-58
2023/10/31 06:14:45;;;;;;;6.35;5.45;;;;;;;;;;5066518;28;20445;-58
2023/10/31 06:17:11;;;;;;;5.27;4.40;;;;;;;;;;5065921;28;20180;-58
2023/10/31 06:19:37;;;;;;;5.40;4.90;;;;;;;;;;5063665;28;20228;-58
2023/10/31 06:22:04;;;;;;;5.93;4.87;;;;;;;;;;5067751;28;20650;-58
2023/10/31 06:24:30;;;;;;;5.10;4.70;;;;;;;;;;5065825;28;20540;-58
2023/10/31 06:26:56;;;;;;;5.27;4.87;;;;;;;;;;5065766;28;20185;-58
2023/10/31 06:29:22;;;;;;;4.77;4.30;;;;;;;;;;5065143;28;20210;-58
2023/10/31 06:31:48;;;;;;;5.67;5.17;;;;;;;;;;5060835;28;20234;-58
2023/10/31 06:34:14;;;;;;;5.77;5.27;;;;;;;;;;5060457;28;20282;-58
2023/10/31 06:36:40;;;;;;;6.30;5.70;;;;;;;;;;5064754;28;20635;-58
2023/10/31 06:39:07;;;;;;;7.17;6.47;;;;;;;;;;5068212;28;20176;-58
2023/10/31 06:41:33;;;;;;;6.83;6.23;;;;;;;;;;5067879;28;20254;-58
2023/10/31 06:43:59;;;;;;;7.20;6.50;;;;;;;;;;5067130;28;20188;-58
2023/10/31 06:46:25;;;;;;;7.07;6.43;;;;;;;;;;5065439;28;20191;-58
2023/10/31 06:48:52;;;;;;;6.50;5.90;;;;;;;;;;5066229;28;20214;-58
2023/10/31 06:51:18;;;;;;;7.37;5.97;;;;;;;;;;5059788;28;20646;-59
2023/10/31 06:53:45;;;;;;;6.37;5.77;;;;;;;;;;5065194;28;20267;-58
2023/10/31 06:56:11;;;;;;;6.00;5.57;;;;;;;;;;5066894;28;20684;-57
2023/10/31 06:58:37;;;;;;;7.73;5.83;;;;;;;;;;5064898;28;20197;-57
2023/10/31 07:01:03;;;;;;;6.67;6.00;;;;;;;;;;5064551;28;20184;-57
2023/10/31 07:03:29;;;;;;;6.63;6.00;;;;;;;;;;5064619;28;20181;-57
2023/10/31 07:05:56;;;;;;;7.23;6.40;;;;;;;;;;5063996;28;20263;-58
2023/10/31 07:08:23;;;;;;;7.10;6.40;;;;;;;;;;5066308;28;20172;-57
2023/10/31 07:10:49;;;;;;;6.87;6.20;;;;;;;;;;5066544;28;20647;-57
2023/10/31 07:13:16;;;;;;;7.20;6.50;;;;;;;;;;5066018;28;20206;-57
2023/10/31 07:15:42;;;;;;;7.10;6.50;;;;;;;;;;5066613;28;20666;-58
2023/10/31 07:18:08;;;;;;;7.13;6.33;;;;;;;;;;5066748;28;20691;-58
2023/10/31 07:20:35;;;;;;;7.50;6.70;;;;;;;;;;5065149;28;20222;-57
2023/10/31 07:23:01;;;;;;;8.87;8.07;;;;;;;;;;5063635;28;20628;-58
2023/10/31 07:25:27;;;;;;;7.77;7.17;;;;;;;;;;5066917;28;20259;-57
2023/10/31 07:27:56;;;;;;;7.43;6.73;;;;;;;;;;5063937;28;20188;-58
2023/10/31 07:30:22;;;;;;;9.27;7.07;;;;;;;;;;5061920;28;20267;-57
2023/10/31 07:32:48;;;;;;;8.13;7.33;;;;;;;;;;5064092;28;20231;-57
2023/10/31 07:35:14;;;;;;;7.53;6.70;;;;;;;;;;5061395;28;20200;-58
2023/10/31 07:37:40;;;;;;;7.83;7.03;;;;;;;;;;5065232;28;20199;-57
2023/10/31 07:40:07;;;;;;;8.10;7.30;;;;;;;;;;5066575;28;20204;-58
2023/10/31 07:42:33;;;;;;;9.60;7.60;;;;;;;;;;5059832;28;20209;-59
2023/10/31 07:44:59;;;;;;;8.23;7.50;;;;;;;;;;5060337;28;20257;-58
2023/10/31 07:47:25;;;;;;;9.23;7.73;;;;;;;;;;5060362;28;20179;-58
2023/10/31 07:49:53;;;;;;;8.13;7.33;;;;;;;;;;5063377;28;20227;-58
2023/10/31 07:52:19;;;;;;;8.60;7.70;;;;;;;;;;5065707;28;20645;-58
2023/10/31 07:54:45;;;;;;;9.80;8.00;;;;;;;;;;5066003;28;20239;-58
2023/10/31 07:57:11;;;;;;;8.17;7.33;;;;;;;;;;5065244;28;20258;-58
2023/10/31 07:59:38;;;;;;;8.20;7.37;;;;;;;;;;5064884;28;20590;-57
2023/10/31 08:02:04;;;;;;;8.33;7.43;;;;;;;;;;5063891;28;20595;-57
2023/10/31 08:04:30;;;;;;;8.63;7.73;;;;;;;;;;5062835;28;20189;-57
2023/10/31 08:06:56;;;;;;;8.40;7.70;;;;;;;;;;5064539;28;20552;-57
2023/10/31 08:09:22;;;;;;;9.07;8.13;;;;;;;;;;5067176;28;20204;-58
2023/10/31 08:11:49;;;;;;;9.50;8.23;;;;;;;;;;5065761;28;20184;-58
2023/10/31 08:14:15;;;;;;;8.77;7.70;;;;;;;;;;5064299;28;20204;-58
2023/10/31 08:16:42;;;;;;;9.10;8.30;;;;;;;;;;5064624;28;20184;-59
2023/10/31 08:19:08;;;;;;;8.83;8.13;;;;;;;;;;5064421;28;20476;-58
2023/10/31 08:21:35;;;;;;;8.93;8.13;;;;;;;;;;5060105;28;20184;-59
2023/10/31 08:24:05;;;;;;;9.07;8.20;;;;;;;;;;5065337;28;20188;-58
2023/10/31 08:26:31;;;;;;;8.63;7.80;;;;;;;;;;5065629;28;20259;-58
2023/10/31 08:28:58;;;;;;;8.83;8.03;;;;;;;;;;5064463;28;20184;-58
2023/10/31 08:31:24;;;;;;;8.53;7.73;;;;;;;;;;5063352;28;20190;-58
2023/10/31 08:33:50;;;;;;;7.47;6.87;;;;;;;;;;5065108;28;20196;-59
2023/10/31 08:36:16;;;;;;;8.93;8.00;;;;;;;;;;5062239;28;20239;-59
2023/10/31 08:38:45;;;;;;;8.13;7.27;;;;;;;;;;5063902;28;20784;-59
2023/10/31 08:41:11;;;;;;;8.53;7.70;;;;;;;;;;5064162;28;20184;-61
2023/10/31 08:43:37;;;;;;;8.57;7.63;;;;;;;;;;5061503;28;20280;-59
2023/10/31 08:46:04;;;;;;;8.07;7.37;;;;;;;;;;5065050;28;20539;-59
2023/10/31 08:48:33;;;;;;;8.70;7.90;;;;;;;;;;5062326;28;20207;-58
2023/10/31 08:51:02;;;;;;;7.30;6.70;;;;;;;;;;5063033;28;20184;-58
2023/10/31 08:53:28;;;;;;;8.50;7.10;;;;;;;;;;5065477;28;20184;-59
2023/10/31 08:55:55;;;;;;;8.77;7.50;;;;;;;;;;5062990;28;20568;-58
2023/10/31 08:58:21;;;;;;;10.27;6.93;;;;;;;;;;5068428;28;20204;-58
2023/10/31 09:00:47;;;;;;;7.17;6.47;;;;;;;;;;5066800;28;20208;-59
2023/10/31 09:03:13;;;;;;;7.50;6.63;;;;;;;;;;5068352;28;20219;-58
2023/10/31 09:05:40;;;;;;;7.10;6.50;;;;;;;;;;5068840;28;20180;-59
2023/10/31 09:08:06;;;;;;;6.80;6.10;;;;;;;;;;5069443;28;20218;-58
2023/10/31 09:10:41;;;;;;;7.43;6.70;;;;;;;;;;5074250;28;20208;-58
2023/10/31 09:13:07;;;;;;;6.20;5.60;;;;;;;;;;5063599;28;20194;-58
2023/10/31 09:15:33;;;;;;;6.50;5.90;;;;;;;;;;5068173;28;20200;-58
2023/10/31 09:17:59;;;;;;;6.17;5.57;;;;;;;;;;5073568;28;20333;-58
2023/10/31 09:20:25;;;;;;;6.30;5.80;;;;;;;;;;5059624;28;20227;-58
2023/10/31 09:22:52;;;;;;;6.63;5.70;;;;;;;;;;5068335;28;20536;-58
2023/10/31 09:25:18;;;;;;;6.00;5.40;;;;;;;;;;5067528;28;20545;-58
2023/10/31 09:27:44;;;;;;;5.70;5.20;;;;;;;;;;5069110;28;20326;-56
2023/10/31 09:30:10;;;;;;;6.37;5.77;;;;;;;;;;5066560;28;20249;-58
2023/10/31 09:32:37;;;;;;;6.27;5.77;;;;;;;;;;5066341;28;20224;-56
2023/10/31 09:35:03;;;;;;;6.07;5.50;;;;;;;;;;5067718;28;20481;-55
2023/10/31 09:37:29;;;;;;;7.83;5.50;;;;;;;;;;5074912;28;20181;-55
2023/10/31 09:39:56;;;;;;;5.50;5.00;;;;;;;;;;5068243;28;20184;-58
2023/10/31 09:42:22;;;;;;;6.43;5.90;;;;;;;;;;5063833;28;20209;-56
2023/10/31 09:44:48;;;;;;;8.10;5.43;;;;;;;;;;5066126;28;20187;-55
2023/10/31 09:47:15;;;;;;;6.87;6.17;;;;;;;;;;5067566;28;20191;-55
2023/10/31 09:49:41;;;;;;;6.63;6.03;;;;;;;;;;5065891;28;20611;-55
2023/10/31 09:52:08;;;;;;;6.63;5.93;;;;;;;;;;5066432;28;20620;-56
2023/10/31 09:54:34;;;;;;;6.63;5.90;;;;;;;;;;5067631;28;20192;-56
2023/10/31 09:57:01;;;;;;;6.33;5.73;;;;;;;;;;5065789;28;20176;-55
2023/10/31 09:59:27;;;;;;;6.80;6.20;;;;;;;;;;5068444;28;20197;-56
2023/10/31 10:01:53;;;;;;;6.57;5.90;;;;;;;;;;5069431;28;20186;-61
2023/10/31 10:04:19;;;;;;;6.73;6.07;;;;;;;;;;5067486;28;20184;-57
2023/10/31 10:07:01;;;;;;;6.37;5.77;;;;;;;;;;5068402;28;20799;-57
2023/10/31 10:09:28;;;;;;;6.47;5.87;;;;;;;;;;5066866;28;20204;-58
2023/10/31 10:11:55;;;;;;;7.40;6.10;;;;;;;;;;5066631;28;20184;-58
2023/10/31 10:14:23;;;;;;;6.43;5.80;;;;;;;;;;5067753;28;20655;-57
2023/10/31 10:16:49;;;;;;;8.07;6.10;;;;;;;;;;5066253;28;20249;-57
2023/10/31 10:19:23;;;;;;;6.73;5.80;;;;;;;;;;5067596;28;20180;-58
2023/10/31 10:21:50;;;;;;;6.50;5.90;;;;;;;;;;5067534;28;20521;-58
2023/10/31 10:24:17;;;;;;;6.43;5.83;;;;;;;;;;5066635;28;20188;-56
2023/10/31 10:26:43;;;;;;;7.07;6.43;;;;;;;;;;5067393;28;20187;-56
2023/10/31 10:29:09;;;;;;;6.67;6.07;;;;;;;;;;5064785;28;20318;-56
2023/10/31 10:31:35;;;;;;;7.70;6.93;;;;;;;;;;5070215;28;20228;-55
2023/10/31 10:34:02;;;;;;;6.60;5.93;;;;;;;;;;5063433;28;20234;-57
2023/10/31 10:36:28;;;;;;;6.30;5.77;;;;;;;;;;5067422;28;20334;-57
2023/10/31 10:38:57;;;;;;;6.30;5.73;;;;;;;;;;5067219;28;20177;-57
2023/10/31 10:41:27;;;;;;;6.63;6.03;;;;;;;;;;5064885;28;20944;-57
2023/10/31 10:43:57;;;;;;;7.47;6.17;;;;;;;;;;5067290;28;20659;-57
2023/10/31 10:46:26;;;;;;;7.23;6.43;;;;;;;;;;5063843;28;20544;-57
2023/10/31 10:48:59;;;;;;;5.87;5.37;;;;;;;;;;5067149;28;20677;-57
2023/10/31 10:51:29;;;;;;;5.53;5.03;;;;;;;;;;5062284;28;20200;-57
2023/10/31 10:53:58;;;;;;;6.77;6.07;;;;;;;;;;5066303;28;20566;-57
2023/10/31 10:56:29;;;;;;;8.00;5.63;;;;;;;;;;5066309;28;20223;-57
2023/10/31 10:58:59;;;;;;;5.80;5.17;;;;;;;;;;5065706;28;20349;-57
2023/10/31 11:01:27;;;;;;;5.73;5.13;;;;;;;;;;5066398;28;20479;-57
2023/10/31 11:03:54;;;;;;;5.03;4.63;;;;;;;;;;5066508;28;20180;-57
2023/10/31 11:06:20;;;;;;;5.67;5.17;;;;;;;;;;5066124;28;20177;-57
2023/10/31 11:08:47;;;;;;;5.33;4.83;;;;;;;;;;5067229;28;20540;-57
2023/10/31 11:11:16;;;;;;;6.03;5.43;;;;;;;;;;5067156;28;20255;-57
2023/10/31 11:13:44;;;;;;;8.40;5.03;;;;;;;;;;5066472;28;20185;-57
2023/10/31 11:16:14;;;;;;;5.33;4.43;;;;;;;;;;5065462;28;20287;-56
2023/10/31 11:18:40;;;;;;;4.53;4.17;;;;;;;;;;5065192;28;20628;-59
2023/10/31 11:21:06;;;;;;;7.83;4.83;;;;;;;;;;5064284;28;20632;-59
2023/10/31 11:23:32;;;;;;;6.23;5.03;;;;;;;;;;5066429;28;20200;-57
2023/10/31 11:25:58;;;;;;;4.27;3.83;;;;;;;;;;5065779;28;20207;-57
2023/10/31 11:28:25;;;;;;;4.80;4.17;;;;;;;;;;5067549;28;20558;-61
2023/10/31 11:30:56;;;;;;;5.33;3.77;;;;;;;;;;5065910;28;20306;-57
2023/10/31 11:33:24;;;;;;;4.33;3.90;;;;;;;;;;5062674;28;20220;-57
2023/10/31 11:36:11;;;;;;;4.50;3.63;;;;;;;;;;5062157;28;20691;-57
2023/10/31 11:38:38;;;;;;;3.10;2.80;;;;;;;;;;5057453;28;20177;-57
2023/10/31 11:41:05;;;;;;;6.30;3.57;;;;;;;;;;5064067;28;20319;-57
2023/10/31 11:43:52;;;;;;;4.47;3.00;;;;;;;;;;5064643;28;20267;-57
2023/10/31 11:46:20;;;;;;;3.27;2.97;;;;;;;;;;5065356;28;20180;-57
2023/10/31 11:48:47;;;;;;;3.30;2.50;;;;;;;;;;5063596;28;20187;-58
2023/10/31 11:51:14;;;;;;;3.57;3.13;;;;;;;;;;5065475;28;20194;-59
2023/10/31 11:53:40;;;;;;;5.97;2.83;;;;;;;;;;5063785;28;20182;-58
2023/10/31 11:56:08;;;;;;;2.93;2.63;;;;;;;;;;5065834;28;20264;-65
2023/10/31 11:58:34;;;;;;;4.00;2.70;;;;;;;;;;5065956;28;20204;-58
2023/10/31 12:01:07;;;;;;;5.27;2.60;;;;;;;;;;5066797;28;20634;-56
2023/10/31 12:03:40;;;;;;;3.30;2.40;;;;;;;;;;5065123;28;20198;-56
2023/10/31 12:06:07;;;;;;;2.83;2.63;;;;;;;;;;5063139;28;20179;-56
2023/10/31 12:08:44;;;;;;;2.93;2.30;;;;;;;;;;5063276;28;20181;-56
2023/10/31 12:11:17;;;;;;;3.40;2.30;;;;;;;;;;5064505;28;20215;-56
2023/10/31 12:13:56;;;;;;;2.80;2.50;;;;;;;;;;5065422;28;20542;-56
2023/10/31 12:16:30;;;;;;;4.33;2.17;;;;;;;;;;5064524;28;20222;-56
2023/10/31 12:19:00;;;;;;;2.47;2.27;;;;;;;;;;5063520;28;20835;-56
2023/10/31 12:21:35;;;;;;;4.13;2.90;;;;;;;;;;5064819;28;20221;-57
2023/10/31 12:24:08;;;;;;;2.57;2.37;;;;;;;;;;5064979;28;20203;-57
2023/10/31 12:26:35;;;;;;;3.50;2.43;;;;;;;;;;5073739;28;20629;-58
2023/10/31 12:29:11;;;;;;;2.30;2.10;;;;;;;;;;5064234;28;20176;-57
2023/10/31 12:31:51;;;;;;;2.43;2.00;;;;;;;;;;5064850;28;20241;-58
2023/10/31 12:34:18;;;;;;;2.10;2.00;;;;;;;;;;5064244;28;20209;-57
2023/10/31 12:36:46;;;;;;;2.40;2.20;;;;;;;;;;5058251;28;20537;-57
2023/10/31 12:39:16;;;;;;;2.70;2.30;;;;;;;;;;5062640;28;20178;-57
2023/10/31 12:41:43;;;;;;;2.83;2.23;;;;;;;;;;5064624;28;20168;-58
2023/10/31 12:44:10;;;;;;;3.73;2.40;;;;;;;;;;5064784;28;20261;-56
2023/10/31 12:46:39;;;;;;;3.80;2.23;;;;;;;;;;5063805;28;20172;-57
2023/10/31 12:49:11;;;;;;;3.43;2.23;;;;;;;;;;5061848;28;20609;-59
2023/10/31 12:51:37;;;;;;;2.90;2.17;;;;;;;;;;5067044;28;20643;-59
2023/10/31 12:54:03;;;;;;;2.60;2.40;;;;;;;;;;5066221;28;20831;-58
2023/10/31 12:56:42;;;;;;;2.63;2.20;;;;;;;;;;5061886;28;21110;-59
2023/10/31 12:59:10;;;;;;;2.63;2.43;;;;;;;;;;5063130;28;20198;-59
2023/10/31 13:01:36;;;;;;;2.30;2.10;;;;;;;;;;5061210;28;20185;-57
2023/10/31 13:04:03;;;;;;;2.47;2.27;;;;;;;;;;5062797;28;20180;-57
2023/10/31 13:06:29;;;;;;;2.93;2.07;;;;;;;;;;5061451;28;20180;-56
2023/10/31 13:09:00;;;;;;;4.47;2.40;;;;;;;;;;5065610;28;20601;-56
2023/10/31 13:11:35;;;;;;;2.53;1.93;;;;;;;;;;5062755;28;20241;-57
2023/10/31 13:14:01;;;;;;;2.20;1.87;;;;;;;;;;5064368;28;20206;-56
2023/10/31 13:16:27;;;;;;;3.23;2.53;;;;;;;;;;5064294;28;20201;-56
2023/10/31 13:18:54;;;;;;;2.90;2.23;;;;;;;;;;5063061;28;20319;-57
2023/10/31 13:21:20;;;;;;;3.10;2.80;;;;;;;;;;5065098;28;20181;-62
2023/10/31 13:23:47;;;;;;;2.40;2.20;;;;;;;;;;5064837;28;20668;-57
2023/10/31 13:26:14;;;;;;;3.03;2.03;;;;;;;;;;5060219;28;20186;-57
2023/10/31 13:28:40;;;;;;;2.60;2.40;;;;;;;;;;5065191;28;20348;-56
2023/10/31 13:31:08;;;;;;;2.30;2.17;;;;;;;;;;5063653;28;20189;-57
2023/10/31 13:33:34;;;;;;;3.13;2.37;;;;;;;;;;5067946;28;20687;-56
2023/10/31 13:36:00;;;;;;;2.50;2.20;;;;;;;;;;5064740;28;20664;-57
2023/10/31 13:38:27;;;;;;;4.43;2.70;;;;;;;;;;5062979;28;20184;-56
2023/10/31 13:40:53;;;;;;;2.60;2.40;;;;;;;;;;5063461;28;20983;-57
2023/10/31 13:43:19;;;;;;;2.53;2.33;;;;;;;;;;5066746;28;20169;-58
2023/10/31 13:45:45;;;;;;;3.13;2.70;;;;;;;;;;5067307;28;20654;-57
2023/10/31 13:48:13;;;;;;;2.73;2.50;;;;;;;;;;5065903;28;20613;-56
2023/10/31 13:50:39;;;;;;;2.60;2.40;;;;;;;;;;5068397;28;20173;-56
2023/10/31 13:53:07;;;;;;;3.13;2.70;;;;;;;;;;5066137;28;20246;-56
2023/10/31 13:55:33;;;;;;;3.00;2.70;;;;;;;;;;5064809;28;20200;-57
2023/10/31 13:58:00;;;;;;;2.73;2.53;;;;;;;;;;5063712;28;20655;-56
2023/10/31 14:00:26;;;;;;;2.70;2.50;;;;;;;;;;5064337;28;20176;-57
2023/10/31 14:02:52;;;;;;;3.53;3.10;;;;;;;;;;5069483;28;20176;-56
2023/10/31 14:05:18;;;;;;;3.97;2.90;;;;;;;;;;5067531;28;20184;-59
2023/10/31 14:07:44;;;;;;;5.10;2.60;;;;;;;;;;5060483;28;20619;-56
2023/10/31 14:10:11;;;;;;;4.37;3.07;;;;;;;;;;5062798;28;20319;-56
2023/10/31 14:12:37;;;;;;;2.57;2.37;;;;;;;;;;5057390;28;20668;-59
2023/10/31 14:15:04;;;;;;;2.80;2.50;;;;;;;;;;5053478;28;20760;-58
2023/10/31 14:17:31;;;;;;;2.60;2.40;;;;;;;;;;5062304;28;20184;-57
2023/10/31 14:19:57;;;;;;;2.93;2.43;;;;;;;;;;5069586;28;20211;-57
2023/10/31 14:22:23;;;;;;;4.10;2.47;;;;;;;;;;5065111;28;20181;-56
2023/10/31 14:24:49;;;;;;;2.77;2.30;;;;;;;;;;5067164;28;20293;-57
2023/10/31 14:27:16;;;;;;;3.53;2.60;;;;;;;;;;5068309;28;20180;-56
2023/10/31 14:29:42;;;;;;;2.47;2.27;;;;;;;;;;5066807;28;20180;-57
2023/10/31 14:32:08;;;;;;;5.53;2.47;;;;;;;;;;5065324;28;20266;-57
2023/10/31 14:34:35;;;;;;;3.30;2.43;;;;;;;;;;5065914;28;20234;-57
2023/10/31 14:37:01;;;;;;;2.40;2.20;;;;;;;;;;5065179;28;20185;-57
2023/10/31 14:39:29;;;;;;;3.87;2.57;;;;;;;;;;5070844;28;20619;-57
2023/10/31 14:41:55;;;;;;;2.97;2.07;;;;;;;;;;5067588;28;20173;-57